createdAt,value
2018-05-14T00:02:20.517Z,99.90
2018-05-14T00:04:48.053Z,99.90
2018-05-14T00:07:15.571Z,99.90
2018-05-14T00:09:43.107Z,99.90
2018-05-14T00:12:11.388Z,99.90
2018-05-14T00:14:39.692Z,99.90
2018-05-14T00:17:07.204Z,99.90
2018-05-14T00:19:34.737Z,99.90
2018-05-14T00:22:02.256Z,99.90
2018-05-14T00:24:30.562Z,99.90
2018-05-14T00:26:58.080Z,99.90
2018-05-14T00:29:25.615Z,99.90
2018-05-14T00:31:53.126Z,99.90
2018-05-14T00:34:20.665Z,99.90
2018-05-14T00:36:48.184Z,99.90
2018-05-14T00:39:15.721Z,99.90
2018-05-14T00:41:43.240Z,99.90
2018-05-14T00:44:10.767Z,99.90
2018-05-14T00:46:38.280Z,99.90
2018-05-14T00:49:06.581Z,99.90
2018-05-14T00:51:34.101Z,99.90
2018-05-14T00:54:01.654Z,99.90
2018-05-14T00:56:29.168Z,99.90
2018-05-14T00:58:56.691Z,99.90
2018-05-14T01:01:24.228Z,99.90
2018-05-14T01:03:51.752Z,99.90
2018-05-14T01:06:19.296Z,99.90
2018-05-14T01:08:47.585Z,99.90
2018-05-14T01:11:15.134Z,99.90
2018-05-14T01:13:43.449Z,99.90
2018-05-14T01:16:10.997Z,99.90
2018-05-14T01:18:38.516Z,99.90
2018-05-14T01:21:06.052Z,99.90
2018-05-14T01:23:33.567Z,99.90
2018-05-14T01:26:01.873Z,99.90
2018-05-14T01:28:29.384Z,99.90
2018-05-14T01:30:56.915Z,99.90
2018-05-14T01:33:24.423Z,99.90
2018-05-14T01:35:51.959Z,99.90
2018-05-14T01:38:19.472Z,99.90
2018-05-14T01:40:47.024Z,99.90
2018-05-14T01:43:15.309Z,99.90
2018-05-14T01:45:42.847Z,99.90
2018-05-14T01:48:11.129Z,99.90
2018-05-14T01:50:39.427Z,99.90
2018-05-14T01:53:06.945Z,99.90
2018-05-14T01:55:34.491Z,99.90
2018-05-14T01:58:02.021Z,99.90
2018-05-14T02:00:29.620Z,99.90
2018-05-14T02:02:57.153Z,99.90
2018-05-14T02:05:24.668Z,99.90
2018-05-14T02:07:52.204Z,99.90
2018-05-14T02:10:19.715Z,99.90
2018-05-14T02:12:48.028Z,99.90
2018-05-14T02:15:15.540Z,99.90
2018-05-14T02:17:43.082Z,99.90
2018-05-14T02:20:10.603Z,99.90
2018-05-14T02:22:38.148Z,99.90
2018-05-14T02:25:05.729Z,99.90
2018-05-14T02:27:33.300Z,99.90
2018-05-14T02:30:00.813Z,99.90
2018-05-14T02:32:29.112Z,99.90
2018-05-14T02:34:56.645Z,99.90
2018-05-14T02:37:24.267Z,99.90
2018-05-14T02:39:51.824Z,99.90
2018-05-14T02:42:19.368Z,99.90
2018-05-14T02:44:46.895Z,99.90
2018-05-14T02:47:14.451Z,99.90
2018-05-14T02:49:43.506Z,99.90
2018-05-14T02:52:11.056Z,99.90
2018-05-14T02:54:38.582Z,99.90
2018-05-14T02:57:06.115Z,99.90
2018-05-14T02:59:33.637Z,99.90
2018-05-14T03:02:01.944Z,99.90
2018-05-14T03:04:29.465Z,99.90
2018-05-14T03:06:57.744Z,99.90
2018-05-14T03:09:26.055Z,99.90
2018-05-14T03:11:53.564Z,99.90
2018-05-14T03:14:21.192Z,99.90
2018-05-14T03:16:48.711Z,99.90
2018-05-14T03:19:16.252Z,99.90
2018-05-14T03:21:43.774Z,99.90
2018-05-14T03:24:11.314Z,99.90
2018-05-14T03:26:39.605Z,99.90
2018-05-14T03:29:07.832Z,99.90
2018-05-14T03:31:35.356Z,99.90
2018-05-14T03:34:02.932Z,99.90
2018-05-14T03:36:32.759Z,99.90
2018-05-14T03:39:00.989Z,99.90
2018-05-14T03:41:29.276Z,99.90
2018-05-14T03:43:57.577Z,99.90
2018-05-14T03:46:25.167Z,99.90
2018-05-14T03:48:52.715Z,99.90
2018-05-14T03:51:20.235Z,99.90
2018-05-14T03:53:47.847Z,99.90
2018-05-14T03:56:16.184Z,99.90
2018-05-14T03:58:56.296Z,99.90
2018-05-14T04:01:35.736Z,99.90
2018-05-14T04:04:15.227Z,99.90
2018-05-14T04:06:43.769Z,99.90
2018-05-14T04:09:11.517Z,99.90
2018-05-14T04:11:39.081Z,99.90
2018-05-14T04:14:07.531Z,99.90
2018-05-14T04:16:35.908Z,99.90
2018-05-14T04:19:04.233Z,99.90
2018-05-14T04:21:31.775Z,99.90
2018-05-14T04:24:00.285Z,99.90
2018-05-14T04:26:27.830Z,99.90
2018-05-14T04:28:55.353Z,99.90
2018-05-14T04:31:23.867Z,99.90
2018-05-14T04:33:52.156Z,99.90
2018-05-14T04:36:19.701Z,99.90
2018-05-14T04:38:47.987Z,99.90
2018-05-14T04:41:16.290Z,99.90
2018-05-14T04:43:44.805Z,99.90
2018-05-14T04:46:12.336Z,99.90
2018-05-14T04:48:39.852Z,99.90
2018-05-14T04:51:07.398Z,99.90
2018-05-14T04:53:35.954Z,99.90
2018-05-14T04:56:03.497Z,99.90
2018-05-14T04:58:31.780Z,99.90
2018-05-14T05:00:59.367Z,99.90
2018-05-14T05:03:26.879Z,99.90
2018-05-14T05:05:54.411Z,99.90
2018-05-14T05:08:23.177Z,99.90
2018-05-14T05:10:50.721Z,99.90
2018-05-14T05:13:18.237Z,99.90
2018-05-14T05:15:45.793Z,99.90
2018-05-14T05:18:15.091Z,99.90
2018-05-14T05:20:42.834Z,99.90
2018-05-14T05:23:10.376Z,99.90
2018-05-14T05:25:38.550Z,99.90
2018-05-14T05:28:06.853Z,99.90
2018-05-14T05:30:34.369Z,99.90
2018-05-14T05:33:01.907Z,99.90
2018-05-14T05:35:29.428Z,99.90
2018-05-14T05:37:57.723Z,99.90
2018-05-14T05:40:25.971Z,99.90
2018-05-14T05:42:54.276Z,99.90
2018-05-14T05:45:21.887Z,99.90
2018-05-14T05:47:49.372Z,99.90
2018-05-14T05:50:17.660Z,99.90
2018-05-14T05:52:46.011Z,99.90
2018-05-14T05:55:13.531Z,99.90
2018-05-14T05:57:42.870Z,99.90
2018-05-14T06:00:11.637Z,99.90
2018-05-14T06:02:39.258Z,99.90
2018-05-14T06:05:06.717Z,99.90
2018-05-14T06:07:35.028Z,99.90
2018-05-14T06:10:02.548Z,99.90
2018-05-14T06:12:30.086Z,99.90
2018-05-14T06:14:57.611Z,99.90
2018-05-14T06:17:25.147Z,99.90
2018-05-14T06:19:54.249Z,99.90
2018-05-14T06:22:22.613Z,99.90
2018-05-14T06:24:50.096Z,99.90
2018-05-14T06:27:19.075Z,99.90
2018-05-14T06:29:46.688Z,99.90
2018-05-14T06:32:14.203Z,99.90
2018-05-14T06:34:41.817Z,99.90
2018-05-14T06:37:09.338Z,99.90
2018-05-14T06:39:37.669Z,99.90
2018-05-14T06:42:05.180Z,99.90
2018-05-14T06:44:33.588Z,99.90
2018-05-14T06:47:01.119Z,99.90
2018-05-14T06:49:30.497Z,99.90
2018-05-14T06:51:58.019Z,99.90
2018-05-14T06:54:25.557Z,99.90
2018-05-14T06:56:53.165Z,99.90
2018-05-14T06:59:20.707Z,99.90
2018-05-14T07:01:49.766Z,99.90
2018-05-14T07:04:17.308Z,99.90
2018-05-14T07:06:44.830Z,99.90
2018-05-14T07:09:13.081Z,99.90
2018-05-14T07:11:40.984Z,99.90
2018-05-14T07:14:09.930Z,99.90
2018-05-14T07:16:37.450Z,99.90
2018-05-14T07:19:05.389Z,99.90
2018-05-14T07:21:34.080Z,99.90
2018-05-14T07:24:01.611Z,99.90
2018-05-14T07:26:29.256Z,99.90
2018-05-14T07:28:56.775Z,99.90
2018-05-14T07:31:25.001Z,99.90
2018-05-14T07:33:52.524Z,99.90
2018-05-14T07:36:21.843Z,99.90
2018-05-14T07:38:52.207Z,99.90
2018-05-14T07:41:20.396Z,99.90
2018-05-14T07:43:48.589Z,99.90
2018-05-14T07:46:16.827Z,99.90
2018-05-14T07:48:44.396Z,99.90
2018-05-14T07:51:12.961Z,99.90
2018-05-14T07:53:40.485Z,98.20
2018-05-14T07:56:08.017Z,99.80
2018-05-14T07:58:38.531Z,98.50
2018-05-14T08:01:06.108Z,98.50
2018-05-14T08:03:33.620Z,97.00
2018-05-14T08:06:01.942Z,95.90
2018-05-14T08:08:30.142Z,95.80
2018-05-14T08:10:57.696Z,97.00
2018-05-14T08:13:26.065Z,96.90
2018-05-14T08:15:54.260Z,98.70
2018-05-14T08:18:21.821Z,97.50
2018-05-14T08:20:51.635Z,92.00
2018-05-14T08:23:19.992Z,95.20
2018-05-14T08:25:47.532Z,95.30
2018-05-14T08:28:15.068Z,91.60
2018-05-14T08:30:42.604Z,92.90
2018-05-14T08:33:10.785Z,92.00
2018-05-14T08:35:38.889Z,95.10
2018-05-14T08:38:07.921Z,88.80
2018-05-14T08:40:36.420Z,88.30
2018-05-14T08:43:05.900Z,86.70
2018-05-14T08:45:34.294Z,86.70
2018-05-14T08:48:02.690Z,84.10
2018-05-14T08:50:30.180Z,84.00
2018-05-14T08:52:57.726Z,88.20
2018-05-14T08:55:25.253Z,87.60
2018-05-14T08:57:53.906Z,86.70
2018-05-14T09:00:21.451Z,79.90
2018-05-14T09:02:50.969Z,81.20
2018-05-14T09:05:18.484Z,86.80
2018-05-14T09:07:46.788Z,80.10
2018-05-14T09:10:16.381Z,80.00
2018-05-14T09:12:44.697Z,79.30
2018-05-14T09:15:12.950Z,79.30
2018-05-14T09:17:41.464Z,83.90
2018-05-14T09:20:09.433Z,83.70
2018-05-14T09:22:37.172Z,73.40
2018-05-14T09:25:05.457Z,73.90
2018-05-14T09:27:32.980Z,73.20
2018-05-14T09:30:00.519Z,73.20
2018-05-14T09:32:28.041Z,76.10
2018-05-14T09:34:59.994Z,71.70
2018-05-14T09:37:29.431Z,77.70
2018-05-14T09:39:56.968Z,77.70
2018-05-14T09:42:25.280Z,76.00
2018-05-14T09:44:53.652Z,76.00
2018-05-14T09:47:21.831Z,76.70
2018-05-14T09:49:52.314Z,74.60
2018-05-14T09:52:19.830Z,75.00
2018-05-14T09:54:47.375Z,74.50
2018-05-14T09:57:14.902Z,73.20
2018-05-14T09:59:42.449Z,73.60
2018-05-14T10:02:09.992Z,78.60
2018-05-14T10:04:37.540Z,84.10
2018-05-14T10:07:05.060Z,76.10
2018-05-14T10:09:32.678Z,75.50
2018-05-14T10:12:00.192Z,71.50
2018-05-14T10:14:29.365Z,77.90
2018-05-14T10:16:57.105Z,77.70
2018-05-14T10:19:24.677Z,77.30
2018-05-14T10:21:52.218Z,77.60
2018-05-14T10:24:19.744Z,76.70
2018-05-14T10:26:50.181Z,70.50
2018-05-14T10:29:18.473Z,67.50
2018-05-14T10:31:46.781Z,66.70
2018-05-14T10:34:14.300Z,66.70
2018-05-14T10:36:41.841Z,73.00
2018-05-14T10:39:09.355Z,72.50
2018-05-14T10:41:36.895Z,63.20
2018-05-14T10:44:05.192Z,66.10
2018-05-14T10:46:34.745Z,67.80
2018-05-14T10:49:02.265Z,67.90
2018-05-14T10:51:30.800Z,71.50
2018-05-14T10:53:58.329Z,71.60
2018-05-14T10:56:25.870Z,62.80
2018-05-14T10:58:54.157Z,61.10
2018-05-14T11:01:22.699Z,61.20
2018-05-14T11:03:50.221Z,63.20
2018-05-14T11:06:17.756Z,59.80
2018-05-14T11:08:46.057Z,61.60
2018-05-14T11:11:14.789Z,61.70
2018-05-14T11:13:43.177Z,59.60
2018-05-14T11:16:10.716Z,57.40
2018-05-14T11:18:39.217Z,60.10
2018-05-14T11:21:07.444Z,65.40
2018-05-14T11:23:35.638Z,64.40
2018-05-14T11:26:03.198Z,60.10
2018-05-14T11:28:31.612Z,61.40
2018-05-14T11:30:59.126Z,57.90
2018-05-14T11:33:29.173Z,56.70
2018-05-14T11:35:56.689Z,56.60
2018-05-14T11:38:25.952Z,53.70
2018-05-14T11:40:54.211Z,53.60
2018-05-14T11:43:21.748Z,58.50
2018-05-14T11:45:50.041Z,55.00
2018-05-14T11:48:18.421Z,55.20
2018-05-14T11:50:47.224Z,55.10
2018-05-14T11:53:15.371Z,56.90
2018-05-14T11:55:44.456Z,56.80
2018-05-14T11:58:12.897Z,56.80
2018-05-14T12:00:42.552Z,53.90
2018-05-14T12:03:10.919Z,53.70
2018-05-14T12:05:39.224Z,53.80
2018-05-14T12:08:09.315Z,54.00
2018-05-14T12:10:36.840Z,54.00
2018-05-14T12:13:05.129Z,54.60
2018-05-14T12:15:32.653Z,53.00
2018-05-14T12:18:01.666Z,54.20
2018-05-14T12:20:29.260Z,53.90
2018-05-14T12:22:57.514Z,54.40
2018-05-14T12:25:25.937Z,54.40
2018-05-14T12:27:53.488Z,54.90
2018-05-14T12:30:22.699Z,54.70
2018-05-14T12:32:51.084Z,57.10
2018-05-14T12:35:19.733Z,57.10
2018-05-14T12:37:47.257Z,58.50
2018-05-14T12:40:14.792Z,58.50
2018-05-14T12:42:43.611Z,52.90
2018-05-14T12:45:12.630Z,52.30
2018-05-14T12:47:40.912Z,54.30
2018-05-14T12:50:10.533Z,55.50
2018-05-14T12:52:38.821Z,56.80
2018-05-14T12:55:07.000Z,56.90
2018-05-14T12:57:35.291Z,56.80
2018-05-14T13:00:02.825Z,56.90
2018-05-14T13:02:31.117Z,63.10
2018-05-14T13:05:00.566Z,60.80
2018-05-14T13:07:28.085Z,60.80
2018-05-14T13:09:57.300Z,58.90
2018-05-14T13:12:26.560Z,61.00
2018-05-14T13:14:54.098Z,60.90
2018-05-14T13:17:21.617Z,63.80
2018-05-14T13:19:49.696Z,55.50
2018-05-14T13:22:17.981Z,58.10
2018-05-14T13:24:46.268Z,55.30
2018-05-14T13:27:14.567Z,59.00
2018-05-14T13:29:42.082Z,59.00
2018-05-14T13:32:09.667Z,57.30
2018-05-14T13:34:37.160Z,60.00
2018-05-14T13:37:04.697Z,59.30
2018-05-14T13:39:33.517Z,58.10
2018-05-14T13:42:01.951Z,58.20
2018-05-14T13:44:29.509Z,58.60
2018-05-14T13:46:58.400Z,56.70
2018-05-14T13:49:30.203Z,60.00
2018-05-14T13:51:58.620Z,60.00
2018-05-14T13:54:26.135Z,63.10
2018-05-14T13:56:54.445Z,60.60
2018-05-14T13:59:22.528Z,60.60
2018-05-14T14:01:52.892Z,55.80
2018-05-14T14:04:23.108Z,56.70
2018-05-14T14:06:50.648Z,56.70
2018-05-14T14:09:18.360Z,57.60
2018-05-14T14:11:46.676Z,61.40
2018-05-14T14:14:14.192Z,61.30
2018-05-14T14:16:43.565Z,62.40
2018-05-14T14:19:11.111Z,62.40
2018-05-14T14:21:39.781Z,59.60
2018-05-14T14:24:08.252Z,57.90
2018-05-14T14:26:36.981Z,60.20
2018-05-14T14:29:05.655Z,60.20
2018-05-14T14:31:33.182Z,59.10
2018-05-14T14:34:00.789Z,59.80
2018-05-14T14:36:28.477Z,64.40
2018-05-14T14:38:57.289Z,60.30
2018-05-14T14:41:24.808Z,60.20
2018-05-14T14:43:53.220Z,59.60
2018-05-14T14:46:21.979Z,57.40
2018-05-14T14:48:49.544Z,58.30
2018-05-14T14:51:20.911Z,57.70
2018-05-14T14:53:50.204Z,60.00
2018-05-14T14:56:18.313Z,65.20
2018-05-14T14:58:46.961Z,71.70
2018-05-14T15:01:15.285Z,68.00
2018-05-14T15:03:42.800Z,73.60
2018-05-14T15:08:45.384Z,73.40
2018-05-14T15:11:13.685Z,76.00
2018-05-14T15:13:41.209Z,76.00
2018-05-14T15:16:08.748Z,78.00
2018-05-14T15:18:36.931Z,79.60
2018-05-14T15:21:05.348Z,77.60
2018-05-14T15:23:33.640Z,79.50
2018-05-14T15:26:02.935Z,77.90
2018-05-14T15:28:31.215Z,75.70
2018-05-14T15:31:00.857Z,77.90
2018-05-14T15:33:28.428Z,77.80
2018-05-14T15:35:55.969Z,77.60
2018-05-14T15:38:24.253Z,70.50
2018-05-14T15:40:51.840Z,70.40
2018-05-14T15:43:19.358Z,71.00
2018-05-14T15:45:46.905Z,66.70
2018-05-14T15:48:14.435Z,66.90
2018-05-14T15:50:41.973Z,66.40
2018-05-14T15:53:09.495Z,67.40
2018-05-14T15:55:37.648Z,68.20
2018-05-14T15:58:05.172Z,66.00
2018-05-14T16:00:32.720Z,64.70
2018-05-14T16:03:01.488Z,65.40
2018-05-14T16:05:29.006Z,66.90
2018-05-14T16:07:57.826Z,63.40
2018-05-14T16:10:25.333Z,61.80
2018-05-14T16:12:54.212Z,63.50
2018-05-14T16:15:21.729Z,63.70
2018-05-14T16:17:49.822Z,62.70
2018-05-14T16:20:17.989Z,63.80
2018-05-14T16:22:45.844Z,58.30
2018-05-14T16:25:13.362Z,62.90
2018-05-14T16:27:41.665Z,58.60
2018-05-14T16:30:09.189Z,58.60
2018-05-14T16:32:37.501Z,59.10
2018-05-14T16:35:05.049Z,59.10
2018-05-14T16:37:33.349Z,57.40
2018-05-14T16:40:00.865Z,57.30
2018-05-14T16:42:29.383Z,59.80
2018-05-14T16:44:57.936Z,58.00
2018-05-14T16:47:25.454Z,59.40
2018-05-14T16:49:53.864Z,59.50
2018-05-14T16:52:21.384Z,58.10
2018-05-14T16:54:50.644Z,55.70
2018-05-14T16:57:18.168Z,56.90
2018-05-14T16:59:46.611Z,56.70
2018-05-14T17:02:15.872Z,59.20
2018-05-14T17:04:44.795Z,59.10
2018-05-14T17:07:12.400Z,55.00
2018-05-14T17:09:39.936Z,54.90
2018-05-14T17:12:08.225Z,54.60
2018-05-14T17:14:36.524Z,56.80
2018-05-14T17:17:04.058Z,56.80
2018-05-14T17:19:32.361Z,55.70
2018-05-14T17:21:59.879Z,55.80
2018-05-14T17:24:27.415Z,55.60
2018-05-14T17:26:54.960Z,55.30
2018-05-14T17:29:22.504Z,57.70
2018-05-14T17:31:50.024Z,57.20
2018-05-14T17:34:17.560Z,57.30
2018-05-14T17:36:45.085Z,56.80
2018-05-14T17:39:14.803Z,57.00
2018-05-14T17:41:42.348Z,58.50
2018-05-14T17:44:11.324Z,57.00
2018-05-14T17:46:38.868Z,57.00
2018-05-14T17:49:07.611Z,57.60
2018-05-14T17:51:35.148Z,59.10
2018-05-14T17:54:03.433Z,56.60
2018-05-14T17:56:31.737Z,57.30
2018-05-14T17:58:59.321Z,57.20
2018-05-14T18:01:26.869Z,55.80
2018-05-14T18:03:54.384Z,56.90
2018-05-14T18:06:21.930Z,56.90
2018-05-14T18:08:49.445Z,55.50
2018-05-14T18:11:16.988Z,56.50
2018-05-14T18:13:46.278Z,55.20
2018-05-14T18:16:13.833Z,55.20
2018-05-14T18:18:42.109Z,56.80
2018-05-14T18:21:11.575Z,57.50
2018-05-14T18:23:44.797Z,54.90
2018-05-14T18:26:18.100Z,56.20
2018-05-14T18:28:49.443Z,56.20
2018-05-14T18:31:22.693Z,56.70
2018-05-14T18:33:50.180Z,55.00
2018-05-14T18:36:17.695Z,55.50
2018-05-14T18:38:46.072Z,56.60
2018-05-14T18:41:14.692Z,56.60
2018-05-14T18:43:42.230Z,56.00
2018-05-14T18:46:11.925Z,57.20
2018-05-14T18:48:39.460Z,57.30
2018-05-14T18:51:07.735Z,58.00
2018-05-14T18:53:35.270Z,58.60
2018-05-14T18:56:03.682Z,58.10
2018-05-14T18:58:31.220Z,58.90
2018-05-14T19:00:58.737Z,59.10
2018-05-14T19:03:26.360Z,59.90
2018-05-14T19:05:54.563Z,59.00
2018-05-14T19:08:22.100Z,59.70
2018-05-14T19:10:55.328Z,59.80
2018-05-14T19:13:22.866Z,60.40
2018-05-14T19:15:56.349Z,59.40
2018-05-14T19:18:23.889Z,59.80
2018-05-14T19:20:52.899Z,59.10
2018-05-14T19:23:26.180Z,59.00
2018-05-14T19:25:54.697Z,57.50
2018-05-14T19:28:28.045Z,57.50
2018-05-14T19:30:55.570Z,58.50
2018-05-14T19:33:28.724Z,56.90
2018-05-14T19:36:04.941Z,57.40
2018-05-14T19:38:33.192Z,57.60
2018-05-14T19:41:00.712Z,57.50
2018-05-14T19:43:29.027Z,58.40
2018-05-14T19:45:56.546Z,57.70
2018-05-14T19:48:24.061Z,58.60
2018-05-14T19:50:51.999Z,58.40
2018-05-14T19:53:19.477Z,58.00
2018-05-14T19:55:47.017Z,57.70
2018-05-14T19:58:15.312Z,58.30
2018-05-14T20:00:42.849Z,58.30
2018-05-14T20:03:10.368Z,57.70
2018-05-14T20:05:37.912Z,58.90
2018-05-14T20:08:05.432Z,58.50
2018-05-14T20:10:33.738Z,59.40
2018-05-14T20:13:01.268Z,59.40
2018-05-14T20:15:28.805Z,58.90
2018-05-14T20:17:56.325Z,59.10
2018-05-14T20:20:25.051Z,58.70
2018-05-14T20:22:52.576Z,58.20
2018-05-14T20:25:20.741Z,58.60
2018-05-14T20:27:52.826Z,58.60
2018-05-14T20:30:22.209Z,58.90
2018-05-14T20:32:50.521Z,59.00
2018-05-14T20:35:18.714Z,58.90
2018-05-14T20:37:46.273Z,59.40
2018-05-14T20:40:14.518Z,59.40
2018-05-14T20:42:42.821Z,58.40
2018-05-14T20:45:11.239Z,58.40
2018-05-14T20:47:38.752Z,60.20
2018-05-14T20:50:06.340Z,59.10
2018-05-14T20:52:33.880Z,60.40
2018-05-14T20:55:01.394Z,60.20
2018-05-14T20:57:29.029Z,60.40
2018-05-14T20:59:58.572Z,61.30
2018-05-14T21:02:26.108Z,61.80
2018-05-14T21:04:53.660Z,62.70
2018-05-14T21:07:21.195Z,63.30
2018-05-14T21:09:49.492Z,63.00
2018-05-14T21:12:17.036Z,63.00
2018-05-14T21:14:45.404Z,63.10
2018-05-14T21:17:13.800Z,63.80
2018-05-14T21:19:42.104Z,62.90
2018-05-14T21:22:09.620Z,62.90
2018-05-14T21:24:38.269Z,64.00
2018-05-14T21:27:06.661Z,62.90
2018-05-14T21:29:35.201Z,62.60
2018-05-14T21:32:03.488Z,63.70
2018-05-14T21:34:32.493Z,63.30
2018-05-14T21:37:00.080Z,63.30
2018-05-14T21:39:27.613Z,62.90
2018-05-14T21:41:55.129Z,64.70
2018-05-14T21:44:22.672Z,64.40
2018-05-14T21:46:51.970Z,63.20
2018-05-14T21:49:20.357Z,64.00
2018-05-14T21:51:47.902Z,63.90
2018-05-14T21:54:15.444Z,63.80
2018-05-14T21:56:43.498Z,63.40
2018-05-14T21:59:12.002Z,64.30
2018-05-14T22:01:40.301Z,64.10
2018-05-14T22:04:08.516Z,64.10
2018-05-14T22:06:36.155Z,63.20
2018-05-14T22:09:05.200Z,64.50
2018-05-14T22:11:32.736Z,64.70
2018-05-14T22:14:01.439Z,65.20
2018-05-14T22:16:29.883Z,65.10
2018-05-14T22:18:57.455Z,64.30
2018-05-14T22:21:25.025Z,65.80
2018-05-14T22:23:53.777Z,66.20
2018-05-14T22:26:22.753Z,66.50
2018-05-14T22:28:50.965Z,66.50
2018-05-14T22:31:18.505Z,67.90
2018-05-14T22:33:47.484Z,67.00
2018-05-14T22:36:15.104Z,66.90
2018-05-14T22:38:46.354Z,67.30
2018-05-14T22:41:13.897Z,68.20
2018-05-14T22:43:41.732Z,68.50
2018-05-14T22:46:10.381Z,68.50
2018-05-14T22:48:37.937Z,70.60
2018-05-14T22:51:06.185Z,71.60
2018-05-14T22:53:34.501Z,72.40
2018-05-14T22:56:02.672Z,71.50
2018-05-14T22:58:30.508Z,72.20
2018-05-14T23:00:59.339Z,73.10
2018-05-14T23:03:27.775Z,73.10
2018-05-14T23:05:55.292Z,74.10
2018-05-14T23:08:23.520Z,74.80
2018-05-14T23:10:51.042Z,75.00
2018-05-14T23:13:18.576Z,76.50
2018-05-14T23:15:47.008Z,77.00
2018-05-14T23:18:14.540Z,78.30
2018-05-14T23:20:43.220Z,79.90
2018-05-14T23:23:10.760Z,80.30
2018-05-14T23:25:39.045Z,80.60
2018-05-14T23:28:06.585Z,80.60
2018-05-14T23:30:35.441Z,81.70
2018-05-14T23:33:02.980Z,81.70
2018-05-14T23:35:30.505Z,81.20
2018-05-14T23:37:58.815Z,82.40
2018-05-14T23:40:26.724Z,82.40
2018-05-14T23:42:55.123Z,82.50
2018-05-14T23:45:23.317Z,84.80
2018-05-14T23:47:51.606Z,87.00
2018-05-14T23:50:19.912Z,87.00
2018-05-14T23:52:50.337Z,87.00
2018-05-14T23:55:18.538Z,87.70
2018-05-14T23:57:46.058Z,87.60
